sensor_id;sensor_type;location;lat;lon;timestamp;P1;durP1;ratioP1;P2;durP2;ratioP2
72791;SDS011;60907;53.268;8.764;2023-11-21T00:01:39;17.90;;;5.15;;
72791;SDS011;60907;53.268;8.764;2023-11-21T00:04:05;18.60;;;5.80;;
72791;SDS011;60907;53.268;8.764;2023-11-21T00:06:32;17.23;;;5.55;;
72791;SDS011;60907;53.268;8.764;2023-11-21T00:08:57;22.55;;;5.40;;
72791;SDS011;60907;53.268;8.764;2023-11-21T00:11:23;19.57;;;6.20;;
72791;SDS011;60907;53.268;8.764;2023-11-21T00:13:50;19.45;;;6.13;;
72791;SDS011;60907;53.268;8.764;2023-11-21T00:16:15;16.70;;;5.22;;
72791;SDS011;60907;53.268;8.764;2023-11-21T00:18:41;15.18;;;5.47;;
72791;SDS011;60907;53.268;8.764;2023-11-21T00:21:07;14.27;;;5.03;;
72791;SDS011;60907;53.268;8.764;2023-11-21T00:23:33;16.40;;;5.55;;
72791;SDS011;60907;53.268;8.764;2023-11-21T00:25:59;17.60;;;6.50;;
72791;SDS011;60907;53.268;8.764;2023-11-21T00:28:24;15.77;;;5.60;;
72791;SDS011;60907;53.268;8.764;2023-11-21T00:30:51;16.25;;;5.15;;
72791;SDS011;60907;53.268;8.764;2023-11-21T00:33:16;22.57;;;5.90;;
72791;SDS011;60907;53.268;8.764;2023-11-21T00:35:41;18.80;;;5.47;;
72791;SDS011;60907;53.268;8.764;2023-11-21T00:38:07;12.35;;;5.28;;
72791;SDS011;60907;53.268;8.764;2023-11-21T00:40:33;13.10;;;4.85;;
72791;SDS011;60907;53.268;8.764;2023-11-21T00:42:59;17.52;;;4.97;;
72791;SDS011;60907;53.268;8.764;2023-11-21T00:45:24;16.00;;;5.00;;
72791;SDS011;60907;53.268;8.764;2023-11-21T00:47:49;16.80;;;5.32;;
72791;SDS011;60907;53.268;8.764;2023-11-21T00:50:15;10.52;;;4.88;;
72791;SDS011;60907;53.268;8.764;2023-11-21T00:52:40;14.65;;;5.13;;
72791;SDS011;60907;53.268;8.764;2023-11-21T00:55:06;15.35;;;4.75;;
72791;SDS011;60907;53.268;8.764;2023-11-21T00:57:32;14.30;;;4.95;;
72791;SDS011;60907;53.268;8.764;2023-11-21T00:59:58;13.82;;;5.68;;
72791;SDS011;60907;53.268;8.764;2023-11-21T01:02:24;11.30;;;4.97;;
72791;SDS011;60907;53.268;8.764;2023-11-21T01:04:50;16.42;;;5.50;;
72791;SDS011;60907;53.268;8.764;2023-11-21T01:07:15;14.65;;;4.95;;
72791;SDS011;60907;53.268;8.764;2023-11-21T01:09:41;14.17;;;5.77;;
72791;SDS011;60907;53.268;8.764;2023-11-21T01:12:06;14.63;;;5.60;;
72791;SDS011;60907;53.268;8.764;2023-11-21T01:14:32;17.05;;;5.93;;
72791;SDS011;60907;53.268;8.764;2023-11-21T01:16:57;15.43;;;5.82;;
72791;SDS011;60907;53.268;8.764;2023-11-21T01:19:23;15.88;;;5.40;;
72791;SDS011;60907;53.268;8.764;2023-11-21T01:21:48;14.60;;;5.40;;
72791;SDS011;60907;53.268;8.764;2023-11-21T01:24:14;12.20;;;6.05;;
72791;SDS011;60907;53.268;8.764;2023-11-21T01:26:39;15.93;;;6.45;;
72791;SDS011;60907;53.268;8.764;2023-11-21T01:29:05;14.55;;;5.63;;
72791;SDS011;60907;53.268;8.764;2023-11-21T01:31:30;13.63;;;6.33;;
72791;SDS011;60907;53.268;8.764;2023-11-21T01:33:56;20.73;;;6.15;;
72791;SDS011;60907;53.268;8.764;2023-11-21T01:36:22;19.02;;;6.82;;
72791;SDS011;60907;53.268;8.764;2023-11-21T01:38:47;17.88;;;6.60;;
72791;SDS011;60907;53.268;8.764;2023-11-21T01:41:13;16.40;;;6.18;;
72791;SDS011;60907;53.268;8.764;2023-11-21T01:43:39;16.35;;;6.57;;
72791;SDS011;60907;53.268;8.764;2023-11-21T01:46:05;22.00;;;6.50;;
72791;SDS011;60907;53.268;8.764;2023-11-21T01:48:31;21.13;;;6.65;;
72791;SDS011;60907;53.268;8.764;2023-11-21T01:50:57;22.10;;;7.28;;
72791;SDS011;60907;53.268;8.764;2023-11-21T01:53:24;21.02;;;6.78;;
72791;SDS011;60907;53.268;8.764;2023-11-21T01:55:50;23.90;;;7.07;;
72791;SDS011;60907;53.268;8.764;2023-11-21T01:58:16;26.10;;;7.97;;
72791;SDS011;60907;53.268;8.764;2023-11-21T02:00:42;23.20;;;7.93;;
72791;SDS011;60907;53.268;8.764;2023-11-21T02:03:08;23.73;;;7.05;;
72791;SDS011;60907;53.268;8.764;2023-11-21T02:05:35;24.00;;;8.07;;
72791;SDS011;60907;53.268;8.764;2023-11-21T02:08:01;25.40;;;8.77;;
72791;SDS011;60907;53.268;8.764;2023-11-21T02:10:27;25.23;;;7.57;;
72791;SDS011;60907;53.268;8.764;2023-11-21T02:12:54;24.80;;;7.10;;
72791;SDS011;60907;53.268;8.764;2023-11-21T02:15:21;25.45;;;8.50;;
72791;SDS011;60907;53.268;8.764;2023-11-21T02:17:48;25.17;;;8.32;;
72791;SDS011;60907;53.268;8.764;2023-11-21T02:20:16;22.42;;;7.57;;
72791;SDS011;60907;53.268;8.764;2023-11-21T02:22:43;23.52;;;7.90;;
72791;SDS011;60907;53.268;8.764;2023-11-21T02:25:09;22.95;;;7.88;;
72791;SDS011;60907;53.268;8.764;2023-11-21T02:27:34;32.50;;;7.82;;
72791;SDS011;60907;53.268;8.764;2023-11-21T02:30:00;23.52;;;7.80;;
72791;SDS011;60907;53.268;8.764;2023-11-21T02:32:26;30.65;;;8.75;;
72791;SDS011;60907;53.268;8.764;2023-11-21T02:34:52;25.88;;;8.00;;
72791;SDS011;60907;53.268;8.764;2023-11-21T02:37:18;29.48;;;9.68;;
72791;SDS011;60907;53.268;8.764;2023-11-21T02:39:44;28.27;;;8.23;;
72791;SDS011;60907;53.268;8.764;2023-11-21T02:42:09;26.20;;;8.37;;
72791;SDS011;60907;53.268;8.764;2023-11-21T02:44:34;31.03;;;8.03;;
72791;SDS011;60907;53.268;8.764;2023-11-21T02:47:00;30.27;;;8.87;;
72791;SDS011;60907;53.268;8.764;2023-11-21T02:49:25;30.17;;;10.10;;
72791;SDS011;60907;53.268;8.764;2023-11-21T02:51:53;34.70;;;11.52;;
72791;SDS011;60907;53.268;8.764;2023-11-21T02:54:20;34.17;;;10.75;;
72791;SDS011;60907;53.268;8.764;2023-11-21T02:56:47;29.83;;;11.00;;
72791;SDS011;60907;53.268;8.764;2023-11-21T02:59:12;30.02;;;10.48;;
72791;SDS011;60907;53.268;8.764;2023-11-21T03:01:38;31.30;;;10.80;;
72791;SDS011;60907;53.268;8.764;2023-11-21T03:04:03;31.57;;;9.93;;
72791;SDS011;60907;53.268;8.764;2023-11-21T03:06:29;33.42;;;10.80;;
72791;SDS011;60907;53.268;8.764;2023-11-21T03:08:54;34.78;;;11.02;;
72791;SDS011;60907;53.268;8.764;2023-11-21T03:11:20;31.65;;;11.38;;
72791;SDS011;60907;53.268;8.764;2023-11-21T03:13:45;31.85;;;10.20;;
72791;SDS011;60907;53.268;8.764;2023-11-21T03:16:11;37.03;;;11.73;;
72791;SDS011;60907;53.268;8.764;2023-11-21T03:18:40;35.35;;;10.88;;
72791;SDS011;60907;53.268;8.764;2023-11-21T03:21:05;35.88;;;11.27;;
72791;SDS011;60907;53.268;8.764;2023-11-21T03:23:33;34.25;;;10.93;;
72791;SDS011;60907;53.268;8.764;2023-11-21T03:25:59;33.13;;;10.65;;
72791;SDS011;60907;53.268;8.764;2023-11-21T03:28:25;27.33;;;10.95;;
72791;SDS011;60907;53.268;8.764;2023-11-21T03:30:52;27.60;;;10.00;;
72791;SDS011;60907;53.268;8.764;2023-11-21T03:33:17;27.05;;;10.40;;
72791;SDS011;60907;53.268;8.764;2023-11-21T03:35:42;29.05;;;9.90;;
72791;SDS011;60907;53.268;8.764;2023-11-21T03:38:10;28.15;;;9.65;;
72791;SDS011;60907;53.268;8.764;2023-11-21T03:40:35;33.20;;;11.73;;
72791;SDS011;60907;53.268;8.764;2023-11-21T03:43:01;30.83;;;11.57;;
72791;SDS011;60907;53.268;8.764;2023-11-21T03:45:26;28.88;;;9.73;;
72791;SDS011;60907;53.268;8.764;2023-11-21T03:47:52;31.77;;;11.37;;
72791;SDS011;60907;53.268;8.764;2023-11-21T03:50:17;32.33;;;11.83;;
72791;SDS011;60907;53.268;8.764;2023-11-21T03:52:42;34.05;;;12.05;;
72791;SDS011;60907;53.268;8.764;2023-11-21T03:55:08;35.28;;;11.98;;
72791;SDS011;60907;53.268;8.764;2023-11-21T03:57:34;31.33;;;11.77;;
72791;SDS011;60907;53.268;8.764;2023-11-21T03:59:59;33.38;;;10.43;;
72791;SDS011;60907;53.268;8.764;2023-11-21T04:02:24;32.70;;;11.98;;
72791;SDS011;60907;53.268;8.764;2023-11-21T04:04:51;34.92;;;11.35;;
72791;SDS011;60907;53.268;8.764;2023-11-21T04:07:16;37.25;;;12.48;;
72791;SDS011;60907;53.268;8.764;2023-11-21T04:09:42;38.88;;;12.05;;
72791;SDS011;60907;53.268;8.764;2023-11-21T04:12:08;34.33;;;12.80;;
72791;SDS011;60907;53.268;8.764;2023-11-21T04:14:36;38.15;;;12.82;;
72791;SDS011;60907;53.268;8.764;2023-11-21T04:17:02;32.22;;;10.55;;
72791;SDS011;60907;53.268;8.764;2023-11-21T04:19:29;38.33;;;13.57;;
72791;SDS011;60907;53.268;8.764;2023-11-21T04:21:54;39.90;;;13.32;;
72791;SDS011;60907;53.268;8.764;2023-11-21T04:24:20;38.85;;;13.75;;
72791;SDS011;60907;53.268;8.764;2023-11-21T04:26:45;37.80;;;12.25;;
72791;SDS011;60907;53.268;8.764;2023-11-21T04:29:11;34.28;;;10.93;;
72791;SDS011;60907;53.268;8.764;2023-11-21T04:31:37;35.80;;;11.82;;
72791;SDS011;60907;53.268;8.764;2023-11-21T04:34:02;35.67;;;12.20;;
72791;SDS011;60907;53.268;8.764;2023-11-21T04:36:29;29.55;;;10.85;;
72791;SDS011;60907;53.268;8.764;2023-11-21T04:38:55;31.63;;;10.63;;
72791;SDS011;60907;53.268;8.764;2023-11-21T04:41:21;27.35;;;9.75;;
72791;SDS011;60907;53.268;8.764;2023-11-21T04:43:46;29.70;;;10.38;;
72791;SDS011;60907;53.268;8.764;2023-11-21T04:46:12;31.90;;;10.32;;
72791;SDS011;60907;53.268;8.764;2023-11-21T04:48:38;29.30;;;10.43;;
72791;SDS011;60907;53.268;8.764;2023-11-21T04:51:03;28.42;;;10.32;;
72791;SDS011;60907;53.268;8.764;2023-11-21T04:53:29;26.73;;;9.75;;
72791;SDS011;60907;53.268;8.764;2023-11-21T04:55:55;26.27;;;9.90;;
72791;SDS011;60907;53.268;8.764;2023-11-21T04:58:20;27.90;;;10.32;;
72791;SDS011;60907;53.268;8.764;2023-11-21T05:00:46;24.45;;;8.60;;
72791;SDS011;60907;53.268;8.764;2023-11-21T05:03:11;28.70;;;10.48;;
72791;SDS011;60907;53.268;8.764;2023-11-21T05:05:37;22.83;;;9.07;;
72791;SDS011;60907;53.268;8.764;2023-11-21T05:08:02;18.67;;;7.80;;
72791;SDS011;60907;53.268;8.764;2023-11-21T05:10:29;19.88;;;8.30;;
72791;SDS011;60907;53.268;8.764;2023-11-21T05:12:55;17.35;;;7.88;;
72791;SDS011;60907;53.268;8.764;2023-11-21T05:15:20;15.43;;;6.78;;
72791;SDS011;60907;53.268;8.764;2023-11-21T05:17:46;17.45;;;6.80;;
72791;SDS011;60907;53.268;8.764;2023-11-21T05:20:14;14.90;;;6.40;;
72791;SDS011;60907;53.268;8.764;2023-11-21T05:22:43;20.42;;;7.15;;
72791;SDS011;60907;53.268;8.764;2023-11-21T05:25:08;17.40;;;7.03;;
72791;SDS011;60907;53.268;8.764;2023-11-21T05:27:34;18.15;;;6.93;;
72791;SDS011;60907;53.268;8.764;2023-11-21T05:30:03;14.52;;;6.30;;
72791;SDS011;60907;53.268;8.764;2023-11-21T05:32:30;14.50;;;6.57;;
72791;SDS011;60907;53.268;8.764;2023-11-21T05:34:56;15.07;;;7.20;;
72791;SDS011;60907;53.268;8.764;2023-11-21T05:37:22;19.70;;;6.68;;
72791;SDS011;60907;53.268;8.764;2023-11-21T05:39:48;14.77;;;6.82;;
72791;SDS011;60907;53.268;8.764;2023-11-21T05:42:14;13.93;;;6.93;;
72791;SDS011;60907;53.268;8.764;2023-11-21T05:44:41;14.52;;;6.30;;
72791;SDS011;60907;53.268;8.764;2023-11-21T05:47:07;13.05;;;6.10;;
72791;SDS011;60907;53.268;8.764;2023-11-21T05:49:33;16.13;;;5.88;;
72791;SDS011;60907;53.268;8.764;2023-11-21T05:51:59;14.80;;;5.95;;
72791;SDS011;60907;53.268;8.764;2023-11-21T05:54:24;13.60;;;6.32;;
72791;SDS011;60907;53.268;8.764;2023-11-21T05:56:51;13.43;;;6.22;;
72791;SDS011;60907;53.268;8.764;2023-11-21T05:59:16;14.32;;;6.03;;
72791;SDS011;60907;53.268;8.764;2023-11-21T06:01:42;14.60;;;6.40;;
72791;SDS011;60907;53.268;8.764;2023-11-21T06:04:07;11.68;;;5.55;;
72791;SDS011;60907;53.268;8.764;2023-11-21T06:06:34;14.63;;;5.78;;
72791;SDS011;60907;53.268;8.764;2023-11-21T06:09:00;14.43;;;6.40;;
72791;SDS011;60907;53.268;8.764;2023-11-21T06:11:26;10.75;;;5.50;;
72791;SDS011;60907;53.268;8.764;2023-11-21T06:13:51;11.75;;;5.25;;
72791;SDS011;60907;53.268;8.764;2023-11-21T06:16:18;13.85;;;5.55;;
72791;SDS011;60907;53.268;8.764;2023-11-21T06:18:47;10.57;;;5.18;;
72791;SDS011;60907;53.268;8.764;2023-11-21T06:21:12;13.88;;;5.53;;
72791;SDS011;60907;53.268;8.764;2023-11-21T06:23:38;14.88;;;6.15;;
72791;SDS011;60907;53.268;8.764;2023-11-21T06:26:04;14.82;;;5.20;;
72791;SDS011;60907;53.268;8.764;2023-11-21T06:28:31;12.77;;;5.88;;
72791;SDS011;60907;53.268;8.764;2023-11-21T06:30:56;12.10;;;5.57;;
72791;SDS011;60907;53.268;8.764;2023-11-21T06:33:23;13.40;;;5.40;;
72791;SDS011;60907;53.268;8.764;2023-11-21T06:35:48;12.45;;;5.80;;
72791;SDS011;60907;53.268;8.764;2023-11-21T06:38:14;14.07;;;5.97;;
72791;SDS011;60907;53.268;8.764;2023-11-21T06:40:40;13.20;;;5.85;;
72791;SDS011;60907;53.268;8.764;2023-11-21T06:43:06;11.35;;;5.43;;
72791;SDS011;60907;53.268;8.764;2023-11-21T06:45:32;13.82;;;5.78;;
72791;SDS011;60907;53.268;8.764;2023-11-21T06:47:59;12.48;;;5.75;;
72791;SDS011;60907;53.268;8.764;2023-11-21T06:50:24;14.00;;;5.60;;
72791;SDS011;60907;53.268;8.764;2023-11-21T06:52:50;14.75;;;5.78;;
72791;SDS011;60907;53.268;8.764;2023-11-21T06:55:16;12.90;;;5.68;;
72791;SDS011;60907;53.268;8.764;2023-11-21T06:57:41;14.05;;;5.90;;
72791;SDS011;60907;53.268;8.764;2023-11-21T07:00:08;14.40;;;5.80;;
72791;SDS011;60907;53.268;8.764;2023-11-21T07:02:34;14.70;;;5.90;;
72791;SDS011;60907;53.268;8.764;2023-11-21T07:04:59;14.60;;;6.22;;
72791;SDS011;60907;53.268;8.764;2023-11-21T07:07:25;13.57;;;5.55;;
72791;SDS011;60907;53.268;8.764;2023-11-21T07:09:50;14.15;;;6.70;;
72791;SDS011;60907;53.268;8.764;2023-11-21T07:12:17;12.18;;;5.65;;
72791;SDS011;60907;53.268;8.764;2023-11-21T07:14:43;13.77;;;6.00;;
72791;SDS011;60907;53.268;8.764;2023-11-21T07:17:10;15.85;;;5.75;;
72791;SDS011;60907;53.268;8.764;2023-11-21T07:19:37;12.73;;;6.03;;
72791;SDS011;60907;53.268;8.764;2023-11-21T07:22:03;14.10;;;6.35;;
72791;SDS011;60907;53.268;8.764;2023-11-21T07:24:29;15.32;;;6.07;;
72791;SDS011;60907;53.268;8.764;2023-11-21T07:26:56;15.63;;;7.35;;
72791;SDS011;60907;53.268;8.764;2023-11-21T07:29:25;16.60;;;6.57;;
72791;SDS011;60907;53.268;8.764;2023-11-21T07:31:52;15.10;;;6.38;;
72791;SDS011;60907;53.268;8.764;2023-11-21T07:34:18;15.60;;;6.72;;
72791;SDS011;60907;53.268;8.764;2023-11-21T07:36:44;15.05;;;6.32;;
72791;SDS011;60907;53.268;8.764;2023-11-21T07:39:09;15.68;;;6.72;;
72791;SDS011;60907;53.268;8.764;2023-11-21T07:41:36;13.25;;;6.38;;
72791;SDS011;60907;53.268;8.764;2023-11-21T07:44:03;14.10;;;5.78;;
72791;SDS011;60907;53.268;8.764;2023-11-21T07:46:28;16.20;;;7.20;;
72791;SDS011;60907;53.268;8.764;2023-11-21T07:48:54;18.35;;;6.20;;
72791;SDS011;60907;53.268;8.764;2023-11-21T07:51:20;15.32;;;6.55;;
72791;SDS011;60907;53.268;8.764;2023-11-21T07:53:45;14.07;;;6.55;;
72791;SDS011;60907;53.268;8.764;2023-11-21T07:56:11;12.65;;;6.15;;
72791;SDS011;60907;53.268;8.764;2023-11-21T07:58:37;13.40;;;6.15;;
72791;SDS011;60907;53.268;8.764;2023-11-21T08:01:04;13.82;;;6.05;;
72791;SDS011;60907;53.268;8.764;2023-11-21T08:03:29;12.77;;;5.82;;
72791;SDS011;60907;53.268;8.764;2023-11-21T08:05:56;14.85;;;6.60;;
72791;SDS011;60907;53.268;8.764;2023-11-21T08:08:22;14.77;;;6.22;;
72791;SDS011;60907;53.268;8.764;2023-11-21T08:10:48;14.75;;;6.63;;
72791;SDS011;60907;53.268;8.764;2023-11-21T08:13:21;13.38;;;5.95;;
72791;SDS011;60907;53.268;8.764;2023-11-21T08:15:50;13.38;;;5.85;;
72791;SDS011;60907;53.268;8.764;2023-11-21T08:18:15;13.73;;;6.53;;
72791;SDS011;60907;53.268;8.764;2023-11-21T08:20:42;15.70;;;6.43;;
72791;SDS011;60907;53.268;8.764;2023-11-21T08:23:08;13.55;;;6.10;;
72791;SDS011;60907;53.268;8.764;2023-11-21T08:25:34;13.25;;;5.70;;
72791;SDS011;60907;53.268;8.764;2023-11-21T08:28:00;16.02;;;6.43;;
72791;SDS011;60907;53.268;8.764;2023-11-21T08:30:25;13.05;;;5.60;;
72791;SDS011;60907;53.268;8.764;2023-11-21T08:32:54;13.77;;;5.80;;
72791;SDS011;60907;53.268;8.764;2023-11-21T08:35:23;15.50;;;6.63;;
72791;SDS011;60907;53.268;8.764;2023-11-21T08:37:50;14.40;;;6.38;;
72791;SDS011;60907;53.268;8.764;2023-11-21T08:40:17;12.52;;;5.35;;
72791;SDS011;60907;53.268;8.764;2023-11-21T08:42:43;16.38;;;6.18;;
72791;SDS011;60907;53.268;8.764;2023-11-21T08:45:10;13.07;;;5.80;;
72791;SDS011;60907;53.268;8.764;2023-11-21T08:47:35;13.90;;;5.75;;
72791;SDS011;60907;53.268;8.764;2023-11-21T08:50:01;13.85;;;5.38;;
72791;SDS011;60907;53.268;8.764;2023-11-21T08:52:27;12.60;;;5.63;;
72791;SDS011;60907;53.268;8.764;2023-11-21T08:54:53;11.48;;;5.10;;
72791;SDS011;60907;53.268;8.764;2023-11-21T08:57:24;14.45;;;5.32;;
72791;SDS011;60907;53.268;8.764;2023-11-21T08:59:50;10.40;;;5.20;;
72791;SDS011;60907;53.268;8.764;2023-11-21T09:02:21;14.70;;;6.13;;
72791;SDS011;60907;53.268;8.764;2023-11-21T09:04:48;10.25;;;5.63;;
72791;SDS011;60907;53.268;8.764;2023-11-21T09:07:14;11.70;;;5.95;;
72791;SDS011;60907;53.268;8.764;2023-11-21T09:09:40;11.95;;;5.13;;
72791;SDS011;60907;53.268;8.764;2023-11-21T09:12:05;13.23;;;5.95;;
72791;SDS011;60907;53.268;8.764;2023-11-21T09:14:31;10.65;;;5.50;;
72791;SDS011;60907;53.268;8.764;2023-11-21T09:16:56;12.07;;;5.65;;
72791;SDS011;60907;53.268;8.764;2023-11-21T09:19:22;14.93;;;5.45;;
72791;SDS011;60907;53.268;8.764;2023-11-21T09:21:47;11.48;;;5.25;;
72791;SDS011;60907;53.268;8.764;2023-11-21T09:24:14;9.73;;;4.75;;
72791;SDS011;60907;53.268;8.764;2023-11-21T09:26:39;14.45;;;5.68;;
72791;SDS011;60907;53.268;8.764;2023-11-21T09:29:05;9.80;;;4.90;;
72791;SDS011;60907;53.268;8.764;2023-11-21T09:31:30;11.45;;;5.72;;
72791;SDS011;60907;53.268;8.764;2023-11-21T09:33:56;13.45;;;5.60;;
72791;SDS011;60907;53.268;8.764;2023-11-21T09:36:22;11.35;;;5.32;;
72791;SDS011;60907;53.268;8.764;2023-11-21T09:38:51;10.02;;;4.93;;
72791;SDS011;60907;53.268;8.764;2023-11-21T09:41:23;12.77;;;5.43;;
72791;SDS011;60907;53.268;8.764;2023-11-21T09:44:00;11.20;;;5.28;;
72791;SDS011;60907;53.268;8.764;2023-11-21T09:46:27;9.60;;;4.97;;
72791;SDS011;60907;53.268;8.764;2023-11-21T09:48:53;11.75;;;5.60;;
72791;SDS011;60907;53.268;8.764;2023-11-21T09:51:21;11.95;;;5.70;;
72791;SDS011;60907;53.268;8.764;2023-11-21T09:53:49;11.05;;;5.45;;
72791;SDS011;60907;53.268;8.764;2023-11-21T09:56:17;13.27;;;5.63;;
72791;SDS011;60907;53.268;8.764;2023-11-21T09:58:50;13.82;;;5.60;;
72791;SDS011;60907;53.268;8.764;2023-11-21T10:01:16;11.95;;;5.72;;
72791;SDS011;60907;53.268;8.764;2023-11-21T10:03:43;11.73;;;5.82;;
72791;SDS011;60907;53.268;8.764;2023-11-21T10:06:08;12.20;;;5.75;;
72791;SDS011;60907;53.268;8.764;2023-11-21T10:08:34;12.10;;;5.78;;
72791;SDS011;60907;53.268;8.764;2023-11-21T10:11:01;12.70;;;5.60;;
72791;SDS011;60907;53.268;8.764;2023-11-21T10:13:27;12.48;;;6.53;;
72791;SDS011;60907;53.268;8.764;2023-11-21T10:15:55;15.02;;;6.57;;
72791;SDS011;60907;53.268;8.764;2023-11-21T10:18:21;12.52;;;6.07;;
72791;SDS011;60907;53.268;8.764;2023-11-21T10:20:49;13.32;;;6.60;;
72791;SDS011;60907;53.268;8.764;2023-11-21T10:23:21;11.45;;;5.55;;
72791;SDS011;60907;53.268;8.764;2023-11-21T10:25:47;9.60;;;4.85;;
72791;SDS011;60907;53.268;8.764;2023-11-21T10:28:14;11.40;;;5.78;;
72791;SDS011;60907;53.268;8.764;2023-11-21T10:30:40;12.18;;;5.43;;
72791;SDS011;60907;53.268;8.764;2023-11-21T10:33:06;10.77;;;5.00;;
72791;SDS011;60907;53.268;8.764;2023-11-21T10:35:39;12.02;;;5.10;;
72791;SDS011;60907;53.268;8.764;2023-11-21T10:38:16;11.48;;;5.50;;
72791;SDS011;60907;53.268;8.764;2023-11-21T10:40:42;12.93;;;5.32;;
72791;SDS011;60907;53.268;8.764;2023-11-21T10:43:11;10.60;;;4.70;;
72791;SDS011;60907;53.268;8.764;2023-11-21T10:45:38;8.43;;;4.80;;
72791;SDS011;60907;53.268;8.764;2023-11-21T10:48:07;12.90;;;5.35;;
72791;SDS011;60907;53.268;8.764;2023-11-21T10:50:34;8.70;;;4.35;;
72791;SDS011;60907;53.268;8.764;2023-11-21T10:53:01;9.57;;;4.85;;
72791;SDS011;60907;53.268;8.764;2023-11-21T10:55:30;11.70;;;4.72;;
72791;SDS011;60907;53.268;8.764;2023-11-21T10:58:00;9.82;;;4.70;;
72791;SDS011;60907;53.268;8.764;2023-11-21T11:00:28;10.20;;;4.97;;
72791;SDS011;60907;53.268;8.764;2023-11-21T11:02:54;10.00;;;4.65;;
72791;SDS011;60907;53.268;8.764;2023-11-21T11:05:21;8.63;;;4.07;;
72791;SDS011;60907;53.268;8.764;2023-11-21T11:07:50;8.85;;;4.22;;
72791;SDS011;60907;53.268;8.764;2023-11-21T11:10:20;7.68;;;4.10;;
72791;SDS011;60907;53.268;8.764;2023-11-21T11:12:47;7.22;;;3.47;;
72791;SDS011;60907;53.268;8.764;2023-11-21T11:15:15;6.53;;;3.45;;
72791;SDS011;60907;53.268;8.764;2023-11-21T11:17:41;9.55;;;3.85;;
72791;SDS011;60907;53.268;8.764;2023-11-21T11:20:08;8.25;;;4.32;;
72791;SDS011;60907;53.268;8.764;2023-11-21T11:22:41;6.53;;;3.55;;
72791;SDS011;60907;53.268;8.764;2023-11-21T11:36:13;6.57;;;3.08;;
72791;SDS011;60907;53.268;8.764;2023-11-21T11:38:54;7.90;;;3.00;;
72791;SDS011;60907;53.268;8.764;2023-11-21T11:41:24;5.53;;;3.25;;
72791;SDS011;60907;53.268;8.764;2023-11-21T11:43:52;7.53;;;2.88;;
72791;SDS011;60907;53.268;8.764;2023-11-21T11:46:18;9.52;;;3.40;;
72791;SDS011;60907;53.268;8.764;2023-11-21T11:48:46;6.50;;;3.25;;
72791;SDS011;60907;53.268;8.764;2023-11-21T11:51:14;8.75;;;3.38;;
72791;SDS011;60907;53.268;8.764;2023-11-21T11:53:42;5.13;;;2.65;;
72791;SDS011;60907;53.268;8.764;2023-11-21T11:56:27;7.70;;;3.95;;
72791;SDS011;60907;53.268;8.764;2023-11-21T11:58:59;14.40;;;5.93;;
72791;SDS011;60907;53.268;8.764;2023-11-21T12:01:28;11.10;;;5.50;;
72791;SDS011;60907;53.268;8.764;2023-11-21T12:07:04;4.82;;;3.03;;
72791;SDS011;60907;53.268;8.764;2023-11-21T12:09:31;6.65;;;3.30;;
72791;SDS011;60907;53.268;8.764;2023-11-21T12:11:59;7.68;;;3.72;;
72791;SDS011;60907;53.268;8.764;2023-11-21T12:14:26;5.35;;;2.72;;
72791;SDS011;60907;53.268;8.764;2023-11-21T12:16:51;7.07;;;3.30;;
72791;SDS011;60907;53.268;8.764;2023-11-21T12:19:17;6.57;;;3.70;;
72791;SDS011;60907;53.268;8.764;2023-11-21T12:21:43;7.50;;;3.47;;
72791;SDS011;60907;53.268;8.764;2023-11-21T12:24:13;8.02;;;3.47;;
72791;SDS011;60907;53.268;8.764;2023-11-21T12:26:39;6.95;;;3.28;;
72791;SDS011;60907;53.268;8.764;2023-11-21T12:29:05;8.98;;;3.70;;
72791;SDS011;60907;53.268;8.764;2023-11-21T12:31:33;8.30;;;3.67;;
72791;SDS011;60907;53.268;8.764;2023-11-21T12:33:59;8.63;;;3.83;;
72791;SDS011;60907;53.268;8.764;2023-11-21T12:36:25;7.05;;;3.75;;
72791;SDS011;60907;53.268;8.764;2023-11-21T12:38:51;6.35;;;3.40;;
72791;SDS011;60907;53.268;8.764;2023-11-21T12:41:16;7.00;;;3.40;;
72791;SDS011;60907;53.268;8.764;2023-11-21T12:43:42;5.82;;;3.22;;
72791;SDS011;60907;53.268;8.764;2023-11-21T12:46:09;6.70;;;3.55;;
72791;SDS011;60907;53.268;8.764;2023-11-21T12:48:38;5.93;;;3.22;;
72791;SDS011;60907;53.268;8.764;2023-11-21T12:51:13;8.30;;;3.50;;
72791;SDS011;60907;53.268;8.764;2023-11-21T12:53:41;5.88;;;3.20;;
72791;SDS011;60907;53.268;8.764;2023-11-21T12:56:09;8.13;;;3.63;;
72791;SDS011;60907;53.268;8.764;2023-11-21T12:58:36;7.70;;;2.92;;
72791;SDS011;60907;53.268;8.764;2023-11-21T13:01:04;6.47;;;2.88;;
72791;SDS011;60907;53.268;8.764;2023-11-21T13:03:30;5.15;;;3.17;;
72791;SDS011;60907;53.268;8.764;2023-11-21T13:05:57;6.38;;;3.00;;
72791;SDS011;60907;53.268;8.764;2023-11-21T13:08:24;5.22;;;2.75;;
72791;SDS011;60907;53.268;8.764;2023-11-21T13:10:51;7.25;;;3.22;;
72791;SDS011;60907;53.268;8.764;2023-11-21T13:13:20;5.25;;;2.63;;
72791;SDS011;60907;53.268;8.764;2023-11-21T13:18:40;4.80;;;2.60;;
72791;SDS011;60907;53.268;8.764;2023-11-21T13:21:07;5.57;;;2.75;;
72791;SDS011;60907;53.268;8.764;2023-11-21T13:23:38;5.85;;;2.78;;
72791;SDS011;60907;53.268;8.764;2023-11-21T13:26:05;7.55;;;3.40;;
72791;SDS011;60907;53.268;8.764;2023-11-21T13:28:32;5.55;;;2.88;;
72791;SDS011;60907;53.268;8.764;2023-11-21T13:30:58;7.20;;;3.33;;
72791;SDS011;60907;53.268;8.764;2023-11-21T13:33:28;4.88;;;2.53;;
72791;SDS011;60907;53.268;8.764;2023-11-21T13:35:53;4.43;;;2.42;;
72791;SDS011;60907;53.268;8.764;2023-11-21T13:38:21;4.32;;;2.65;;
72791;SDS011;60907;53.268;8.764;2023-11-21T13:40:50;5.18;;;2.70;;
72791;SDS011;60907;53.268;8.764;2023-11-21T13:43:19;5.13;;;2.78;;
72791;SDS011;60907;53.268;8.764;2023-11-21T13:45:47;4.18;;;2.30;;
72791;SDS011;60907;53.268;8.764;2023-11-21T13:48:16;4.03;;;2.20;;
72791;SDS011;60907;53.268;8.764;2023-11-21T13:50:50;2.58;;;1.50;;
72791;SDS011;60907;53.268;8.764;2023-11-21T13:53:24;3.58;;;1.90;;
72791;SDS011;60907;53.268;8.764;2023-11-21T13:55:50;3.67;;;1.50;;
72791;SDS011;60907;53.268;8.764;2023-11-21T13:58:24;4.68;;;1.73;;
72791;SDS011;60907;53.268;8.764;2023-11-21T14:01:04;4.70;;;2.10;;
72791;SDS011;60907;53.268;8.764;2023-11-21T14:03:31;3.33;;;1.55;;
72791;SDS011;60907;53.268;8.764;2023-11-21T14:06:09;4.75;;;2.00;;
72791;SDS011;60907;53.268;8.764;2023-11-21T14:08:39;3.67;;;1.63;;
72791;SDS011;60907;53.268;8.764;2023-11-21T14:11:06;3.67;;;1.95;;
72791;SDS011;60907;53.268;8.764;2023-11-21T14:13:32;4.22;;;1.70;;
72791;SDS011;60907;53.268;8.764;2023-11-21T14:15:58;3.03;;;1.80;;
72791;SDS011;60907;53.268;8.764;2023-11-21T14:18:25;6.10;;;2.15;;
72791;SDS011;60907;53.268;8.764;2023-11-21T14:21:04;3.58;;;1.92;;
72791;SDS011;60907;53.268;8.764;2023-11-21T14:23:30;3.13;;;1.77;;
72791;SDS011;60907;53.268;8.764;2023-11-21T14:25:56;3.15;;;1.83;;
72791;SDS011;60907;53.268;8.764;2023-11-21T14:28:23;3.78;;;1.92;;
72791;SDS011;60907;53.268;8.764;2023-11-21T14:30:48;3.15;;;1.90;;
72791;SDS011;60907;53.268;8.764;2023-11-21T14:33:14;2.42;;;1.38;;
72791;SDS011;60907;53.268;8.764;2023-11-21T14:35:41;3.63;;;1.38;;
72791;SDS011;60907;53.268;8.764;2023-11-21T14:38:08;2.38;;;1.42;;
72791;SDS011;60907;53.268;8.764;2023-11-21T14:43:01;2.50;;;1.42;;
72791;SDS011;60907;53.268;8.764;2023-11-21T14:45:27;3.35;;;1.67;;
72791;SDS011;60907;53.268;8.764;2023-11-21T14:47:54;4.78;;;1.70;;
72791;SDS011;60907;53.268;8.764;2023-11-21T14:50:41;2.78;;;1.67;;
72791;SDS011;60907;53.268;8.764;2023-11-21T14:53:07;3.78;;;1.55;;